createdAt,value
2023-04-19T00:01:44.459Z,4.80
2023-04-19T00:04:11.764Z,4.70
2023-04-19T00:06:41.186Z,4.70
2023-04-19T00:09:09.070Z,4.70
2023-04-19T00:11:36.163Z,4.60
2023-04-19T00:14:03.336Z,4.60
2023-04-19T00:16:30.514Z,4.50
2023-04-19T00:18:57.511Z,4.50
2023-04-19T00:21:24.578Z,4.50
2023-04-19T00:23:52.261Z,4.50
2023-04-19T00:26:19.241Z,4.50
2023-04-19T00:28:49.969Z,4.60
2023-04-19T00:31:17.046Z,4.60
2023-04-19T00:33:44.091Z,4.70
2023-04-19T00:36:11.288Z,4.70
2023-04-19T00:38:39.215Z,4.80
2023-04-19T00:41:06.446Z,4.90
2023-04-19T00:43:33.535Z,4.90
2023-04-19T00:46:01.145Z,5.00
2023-04-19T00:48:28.786Z,5.00
2023-04-19T00:50:56.112Z,5.00
2023-04-19T00:53:23.195Z,5.00
2023-04-19T00:55:52.988Z,5.10
2023-04-19T00:58:20.047Z,5.20
2023-04-19T01:00:48.325Z,5.30
2023-04-19T01:03:17.180Z,5.40
2023-04-19T01:05:48.748Z,5.40
2023-04-19T01:08:16.813Z,5.40
2023-04-19T01:10:45.416Z,5.40
2023-04-19T01:13:12.730Z,5.30
2023-04-19T01:15:39.812Z,5.30
2023-04-19T01:18:06.902Z,5.20
2023-04-19T01:20:33.915Z,5.20
2023-04-19T01:23:01.012Z,5.20
2023-04-19T01:25:31.364Z,5.10
2023-04-19T01:28:00.063Z,5.10
2023-04-19T01:30:27.072Z,5.20
2023-04-19T01:32:55.982Z,5.30
2023-04-19T01:35:23.012Z,5.30
2023-04-19T01:37:51.863Z,5.30
2023-04-19T01:40:19.256Z,5.40
2023-04-19T01:42:46.214Z,5.40
2023-04-19T01:45:13.791Z,5.30
2023-04-19T01:47:41.035Z,5.30
2023-04-19T01:50:08.693Z,5.20
2023-04-19T01:52:36.133Z,5.30
2023-04-19T01:55:06.220Z,5.20
2023-04-19T01:57:33.213Z,5.00
2023-04-19T02:00:03.654Z,5.10
2023-04-19T02:02:42.078Z,5.30
2023-04-19T02:05:09.766Z,5.40
2023-04-19T02:07:36.960Z,5.50
2023-04-19T02:10:06.078Z,5.60
2023-04-19T02:12:34.785Z,5.70
2023-04-19T02:15:03.495Z,5.80
2023-04-19T02:17:30.850Z,5.80
2023-04-19T02:20:00.003Z,5.90
2023-04-19T02:22:27.638Z,5.90
2023-04-19T02:24:54.681Z,5.90
2023-04-19T02:27:37.206Z,5.90
2023-04-19T02:30:04.968Z,5.90
2023-04-19T02:32:34.045Z,6.00
2023-04-19T02:35:01.158Z,6.00
2023-04-19T02:37:29.772Z,6.00
2023-04-19T02:39:57.414Z,6.00
2023-04-19T02:42:24.499Z,5.90
2023-04-19T02:44:53.774Z,5.90
2023-04-19T02:47:24.704Z,5.90
2023-04-19T02:49:51.733Z,5.80
2023-04-19T02:52:19.905Z,5.70
2023-04-19T02:54:47.064Z,5.70
2023-04-19T02:57:14.196Z,5.50
2023-04-19T02:59:43.364Z,5.50
2023-04-19T03:02:10.614Z,5.50
2023-04-19T03:04:38.350Z,5.40
2023-04-19T03:07:08.987Z,5.40
2023-04-19T03:09:36.592Z,5.40
2023-04-19T03:12:04.899Z,5.50
2023-04-19T03:14:34.285Z,5.40
2023-04-19T03:17:01.825Z,5.50
2023-04-19T03:19:29.548Z,5.40
2023-04-19T03:21:56.679Z,5.40
2023-04-19T03:24:30.906Z,5.40
2023-04-19T03:27:03.509Z,5.30
2023-04-19T03:29:31.603Z,5.30
2023-04-19T03:32:02.611Z,5.30
2023-04-19T03:34:30.366Z,5.30
2023-04-19T03:36:57.457Z,5.30
2023-04-19T03:39:25.220Z,5.30
2023-04-19T03:41:57.422Z,5.30
2023-04-19T03:44:47.263Z,5.30
2023-04-19T03:47:16.023Z,5.20
2023-04-19T03:49:46.627Z,5.30
2023-04-19T03:52:13.647Z,5.30
2023-04-19T03:54:40.742Z,5.30
2023-04-19T03:57:17.780Z,5.30
2023-04-19T03:59:44.784Z,5.30
2023-04-19T04:02:12.062Z,5.20
2023-04-19T04:04:39.443Z,5.30
2023-04-19T04:07:08.409Z,5.30
2023-04-19T04:09:35.551Z,5.30
2023-04-19T04:12:03.237Z,5.30
2023-04-19T04:14:31.498Z,5.40
2023-04-19T04:17:00.031Z,5.40
2023-04-19T04:19:27.188Z,5.40
2023-04-19T04:21:54.682Z,5.30
2023-04-19T04:24:22.464Z,5.30
2023-04-19T04:27:12.012Z,5.40
2023-04-19T04:29:41.450Z,5.30
2023-04-19T04:32:10.763Z,5.30
2023-04-19T04:34:43.136Z,5.30
2023-04-19T04:37:14.485Z,5.20
2023-04-19T04:39:42.335Z,5.20
2023-04-19T04:42:11.050Z,5.10
2023-04-19T04:44:39.111Z,5.10
2023-04-19T04:47:08.557Z,5.20
2023-04-19T04:49:42.012Z,5.30
2023-04-19T04:52:09.637Z,5.30
2023-04-19T04:54:45.184Z,5.20
2023-04-19T04:57:22.027Z,5.20
2023-04-19T04:59:49.109Z,5.30
2023-04-19T05:02:18.890Z,5.30
2023-04-19T05:04:46.083Z,5.30
2023-04-19T05:07:13.348Z,5.30
2023-04-19T05:09:40.497Z,5.30
2023-04-19T05:12:07.638Z,5.20
2023-04-19T05:14:34.678Z,5.20
2023-04-19T05:17:04.789Z,5.20
2023-04-19T05:19:33.783Z,5.20
2023-04-19T05:22:06.427Z,5.10
2023-04-19T05:24:33.846Z,5.10
2023-04-19T05:27:01.978Z,5.00
2023-04-19T05:29:29.092Z,5.10
2023-04-19T05:31:58.118Z,5.00
2023-04-19T05:34:31.654Z,5.10
2023-04-19T05:37:00.745Z,5.10
2023-04-19T05:39:27.779Z,5.10
2023-04-19T05:41:55.017Z,5.10
2023-04-19T05:44:22.167Z,5.10
2023-04-19T05:46:49.255Z,5.10
2023-04-19T05:49:26.830Z,5.10
2023-04-19T05:52:16.594Z,5.00
2023-04-19T05:54:50.051Z,5.00
2023-04-19T05:57:17.064Z,4.90
2023-04-19T05:59:44.286Z,5.00
2023-04-19T06:02:14.114Z,5.00
2023-04-19T06:04:41.605Z,5.00
2023-04-19T06:07:21.694Z,5.10
2023-04-19T06:09:56.685Z,5.10
2023-04-19T06:12:23.707Z,5.10
2023-04-19T06:14:51.340Z,5.20
2023-04-19T06:17:23.651Z,5.30
2023-04-19T06:19:51.947Z,5.30
2023-04-19T06:22:19.089Z,5.40
2023-04-19T06:24:46.602Z,5.40
2023-04-19T06:27:14.500Z,5.40
2023-04-19T06:29:41.635Z,5.50
2023-04-19T06:32:09.653Z,5.60
2023-04-19T06:34:36.661Z,5.70
2023-04-19T06:37:04.087Z,5.70
2023-04-19T06:39:31.137Z,5.80
2023-04-19T06:41:58.088Z,5.70
2023-04-19T06:44:25.084Z,5.80
2023-04-19T06:46:52.042Z,5.80
2023-04-19T06:49:19.120Z,5.90
2023-04-19T06:51:46.910Z,6.00
2023-04-19T06:54:13.895Z,6.20
2023-04-19T06:56:47.771Z,6.40
2023-04-19T06:59:17.448Z,6.80
2023-04-19T07:01:44.969Z,7.10
2023-04-19T07:04:12.681Z,7.50
2023-04-19T07:06:40.085Z,8.00
2023-04-19T07:09:08.532Z,8.50
2023-04-19T07:11:35.957Z,8.90
2023-04-19T07:14:02.992Z,9.10
2023-04-19T07:16:33.331Z,8.80
2023-04-19T07:19:00.538Z,8.90
2023-04-19T07:21:30.740Z,9.30
2023-04-19T07:23:57.791Z,10.90
2023-04-19T07:26:24.779Z,10.80
2023-04-19T07:28:51.867Z,10.50
2023-04-19T07:31:19.673Z,10.20
2023-04-19T07:33:47.047Z,10.00
2023-04-19T07:36:14.005Z,10.00
2023-04-19T07:38:41.048Z,10.00
2023-04-19T07:41:08.039Z,10.10
2023-04-19T07:43:35.570Z,9.90
2023-04-19T07:46:03.235Z,9.90
2023-04-19T07:48:30.344Z,9.80
2023-04-19T07:50:57.311Z,9.70
2023-04-19T07:53:24.300Z,9.70
2023-04-19T07:55:51.294Z,9.60
2023-04-19T07:58:18.289Z,9.40
2023-04-19T08:00:45.507Z,9.20
2023-04-19T08:03:12.685Z,9.10
2023-04-19T08:05:40.057Z,8.90
2023-04-19T08:08:07.272Z,8.70
2023-04-19T08:10:34.932Z,8.60
2023-04-19T08:13:05.775Z,8.70
2023-04-19T08:18:06.859Z,8.90
2023-04-19T08:20:33.936Z,8.80
2023-04-19T08:23:10.557Z,8.80
2023-04-19T08:25:45.685Z,8.60
2023-04-19T08:28:12.911Z,8.60
2023-04-19T08:30:40.722Z,8.50
2023-04-19T08:33:08.708Z,8.50
2023-04-19T08:35:39.295Z,8.70
2023-04-19T08:38:06.711Z,8.80
2023-04-19T08:40:34.015Z,8.80
2023-04-19T08:43:05.667Z,9.00
2023-04-19T08:45:33.470Z,9.10
2023-04-19T08:48:02.877Z,9.00
2023-04-19T08:50:35.912Z,8.90
2023-04-19T08:55:58.490Z,8.80
2023-04-19T09:01:09.869Z,8.80
2023-04-19T09:04:01.039Z,8.90
2023-04-19T09:06:35.563Z,9.00
2023-04-19T09:09:33.168Z,9.00
2023-04-19T09:12:17.981Z,9.00
2023-04-19T09:15:00.581Z,8.90
2023-04-19T09:17:30.436Z,8.90
2023-04-19T09:19:58.729Z,8.90
2023-04-19T09:22:25.977Z,8.80
2023-04-19T09:25:30.674Z,8.70
2023-04-19T09:27:40.462Z,8.50
2023-04-19T09:30:14.827Z,8.50
2023-04-19T09:32:48.798Z,8.40
2023-04-19T09:35:16.493Z,8.50
2023-04-19T09:40:27.183Z,8.70
2023-04-19T09:48:08.110Z,8.90
2023-04-19T09:50:50.529Z,9.10
2023-04-19T09:53:23.941Z,9.20
2023-04-19T09:56:00.310Z,9.40
2023-04-19T10:01:13.328Z,9.60
2023-04-19T10:03:42.673Z,9.80
2023-04-19T10:06:14.523Z,9.90
2023-04-19T10:08:49.968Z,9.90
2023-04-19T10:11:23.736Z,10.00
2023-04-19T10:13:57.636Z,10.00
2023-04-19T10:16:25.110Z,10.00
2023-04-19T10:18:53.138Z,10.00
2023-04-19T10:21:21.143Z,9.90
2023-04-19T10:23:48.708Z,9.70
2023-04-19T10:26:21.754Z,9.50
2023-04-19T10:28:49.284Z,9.30
2023-04-19T10:31:21.445Z,9.20
2023-04-19T10:33:48.534Z,9.10
2023-04-19T10:36:17.847Z,8.80
2023-04-19T10:38:52.033Z,8.70
2023-04-19T10:41:19.868Z,8.40
2023-04-19T10:43:56.201Z,8.30
2023-04-19T10:46:24.642Z,8.20
2023-04-19T10:48:55.894Z,8.00
2023-04-19T10:51:33.715Z,8.00
2023-04-19T10:54:02.372Z,7.90
2023-04-19T10:56:35.543Z,8.00
2023-04-19T10:59:08.432Z,7.90
2023-04-19T11:01:40.414Z,7.90
2023-04-19T11:04:08.539Z,7.90
2023-04-19T11:06:39.536Z,7.90
2023-04-19T11:09:07.453Z,8.00
2023-04-19T11:11:37.581Z,8.10
2023-04-19T11:14:04.907Z,8.20
2023-04-19T11:16:45.040Z,8.30
2023-04-19T11:19:17.356Z,8.30
2023-04-19T11:21:48.731Z,8.40
2023-04-19T11:24:18.917Z,8.40
2023-04-19T11:26:47.167Z,8.20
2023-04-19T11:29:14.650Z,8.00
2023-04-19T11:31:48.063Z,7.70
2023-04-19T11:34:15.812Z,7.50
2023-04-19T11:36:52.828Z,7.40
2023-04-19T11:39:20.111Z,7.30
2023-04-19T11:41:49.746Z,7.30
2023-04-19T11:44:20.668Z,7.40
2023-04-19T11:47:03.983Z,7.40
2023-04-19T11:49:33.736Z,7.40
2023-04-19T11:52:05.373Z,7.40
2023-04-19T11:54:33.955Z,7.50
2023-04-19T11:57:06.712Z,7.50
2023-04-19T11:59:37.619Z,7.50
2023-04-19T12:02:09.435Z,7.50
2023-04-19T12:04:37.438Z,7.50
2023-04-19T12:07:06.314Z,7.50
2023-04-19T12:09:35.687Z,7.50
2023-04-19T12:12:07.001Z,7.40
2023-04-19T12:14:34.471Z,7.50
2023-04-19T12:17:09.967Z,7.50
2023-04-19T12:19:42.593Z,7.40
2023-04-19T12:22:11.609Z,7.30
2023-04-19T12:24:39.546Z,7.10
2023-04-19T12:27:06.882Z,7.00
2023-04-19T12:29:35.136Z,7.00
2023-04-19T12:32:02.759Z,7.00
2023-04-19T12:34:30.059Z,6.90
2023-04-19T12:36:57.344Z,6.90
2023-04-19T12:39:24.576Z,6.90
2023-04-19T12:41:51.689Z,6.90
2023-04-19T12:44:18.678Z,6.80
2023-04-19T12:46:45.928Z,6.80
2023-04-19T12:49:13.189Z,6.80
2023-04-19T12:51:40.599Z,6.60
2023-04-19T12:54:07.777Z,6.50
2023-04-19T12:56:35.299Z,6.40
2023-04-19T12:59:02.354Z,6.30
2023-04-19T13:01:29.432Z,6.20
2023-04-19T13:04:06.335Z,6.10
2023-04-19T13:06:33.585Z,6.00
2023-04-19T13:09:01.544Z,6.10
2023-04-19T13:11:32.693Z,6.10
2023-04-19T13:14:02.768Z,6.10
2023-04-19T13:16:29.949Z,6.00
2023-04-19T13:19:03.069Z,5.90
2023-04-19T13:21:30.121Z,5.80
2023-04-19T13:23:59.250Z,5.60
2023-04-19T13:26:26.817Z,5.40
2023-04-19T13:28:53.868Z,5.40
2023-04-19T13:31:20.991Z,5.40
2023-04-19T13:33:48.100Z,5.50
2023-04-19T13:36:15.494Z,5.60
2023-04-19T13:38:43.606Z,5.60
2023-04-19T13:41:10.762Z,5.60
2023-04-19T13:43:37.974Z,5.60
2023-04-19T13:46:05.384Z,5.40
2023-04-19T13:48:32.800Z,5.20
2023-04-19T13:51:02.965Z,5.10
2023-04-19T13:53:32.997Z,5.10
2023-04-19T13:56:00.166Z,5.10
2023-04-19T13:58:27.307Z,5.20
2023-04-19T14:00:54.390Z,5.30
2023-04-19T14:03:26.106Z,5.30
2023-04-19T14:05:53.495Z,5.20
2023-04-19T14:08:21.193Z,5.20
2023-04-19T14:10:48.736Z,5.10
2023-04-19T14:13:15.733Z,5.00
2023-04-19T14:15:42.715Z,4.90
2023-04-19T14:18:09.785Z,4.80
2023-04-19T14:20:36.874Z,4.40
2023-04-19T14:23:04.033Z,4.10
2023-04-19T14:25:31.191Z,4.00
2023-04-19T14:27:59.438Z,3.90
2023-04-19T14:30:27.704Z,3.90
2023-04-19T14:33:11.171Z,3.80
2023-04-19T14:35:38.183Z,3.60
2023-04-19T14:38:05.142Z,3.60
2023-04-19T14:40:33.250Z,3.50
2023-04-19T14:43:00.701Z,3.30
2023-04-19T14:45:35.718Z,3.20
2023-04-19T14:48:03.005Z,3.20
2023-04-19T14:50:30.142Z,3.10
2023-04-19T14:52:57.089Z,2.90
2023-04-19T14:55:26.709Z,2.70
2023-04-19T14:57:53.746Z,2.50
2023-04-19T15:00:21.118Z,2.40
2023-04-19T15:03:17.269Z,2.40
2023-04-19T15:05:44.614Z,2.50
2023-04-19T15:08:26.986Z,2.60
2023-04-19T15:10:57.125Z,2.80
2023-04-19T15:13:24.284Z,3.00
2023-04-19T15:15:51.421Z,3.10
2023-04-19T15:18:18.457Z,3.00
2023-04-19T15:20:45.439Z,2.80
2023-04-19T15:23:12.453Z,2.70
2023-04-19T15:25:39.425Z,2.70
2023-04-19T15:28:06.397Z,2.50
2023-04-19T15:30:33.486Z,2.00
2023-04-19T15:33:00.830Z,1.90
2023-04-19T15:35:27.862Z,1.90
2023-04-19T15:37:54.810Z,1.90
2023-04-19T15:40:21.746Z,1.90
2023-04-19T15:42:48.723Z,1.90
2023-04-19T15:45:18.178Z,1.60
2023-04-19T15:47:45.206Z,1.70
2023-04-19T15:50:12.431Z,1.60
2023-04-19T15:52:39.462Z,1.50
2023-04-19T15:55:06.837Z,1.40
2023-04-19T15:57:33.874Z,1.50
2023-04-19T16:00:01.218Z,1.50
2023-04-19T16:02:28.375Z,1.40
2023-04-19T16:04:55.721Z,1.40
2023-04-19T16:07:35.309Z,1.40
2023-04-19T16:10:05.853Z,1.60
2023-04-19T16:12:32.910Z,1.60
2023-04-19T16:15:02.219Z,1.50
2023-04-19T16:17:29.205Z,1.40
2023-04-19T16:19:56.324Z,1.40
2023-04-19T16:22:23.904Z,1.30
2023-04-19T16:24:51.545Z,1.40
2023-04-19T16:27:18.524Z,1.40
2023-04-19T16:29:45.684Z,1.50
2023-04-19T16:32:12.733Z,1.40
2023-04-19T16:34:39.719Z,1.40
2023-04-19T16:37:06.689Z,1.30
2023-04-19T16:39:33.666Z,1.40
2023-04-19T16:42:04.231Z,1.40
2023-04-19T16:44:31.300Z,1.40
2023-04-19T16:46:58.306Z,1.40
2023-04-19T16:49:26.009Z,1.40
2023-04-19T16:51:52.972Z,1.40
2023-04-19T16:54:19.988Z,1.30
2023-04-19T16:56:47.394Z,1.40
2023-04-19T16:59:14.489Z,1.50
2023-04-19T17:01:41.554Z,1.50
2023-04-19T17:04:08.737Z,1.50
2023-04-19T17:06:35.757Z,1.50
2023-04-19T17:09:05.309Z,1.40
2023-04-19T17:11:35.420Z,1.50
2023-04-19T17:14:05.430Z,1.70
2023-04-19T17:16:32.508Z,1.60
2023-04-19T17:18:59.814Z,1.50
2023-04-19T17:21:27.686Z,1.50
2023-04-19T17:23:54.673Z,1.60
2023-04-19T17:26:21.620Z,1.70
2023-04-19T17:28:48.680Z,2.00
2023-04-19T17:31:15.761Z,2.30
2023-04-19T17:33:42.776Z,2.50
2023-04-19T17:36:12.915Z,2.70
2023-04-19T17:38:40.234Z,2.70
2023-04-19T17:41:10.089Z,2.80
2023-04-19T17:43:37.037Z,2.80
2023-04-19T17:46:04.047Z,2.80
2023-04-19T17:48:31.120Z,2.70
2023-04-19T17:50:58.071Z,2.70
2023-04-19T17:53:26.526Z,2.70
2023-04-19T17:55:53.584Z,3.00
2023-04-19T17:58:21.063Z,3.40
2023-04-19T18:00:48.046Z,3.50
2023-04-19T18:03:15.216Z,3.70
2023-04-19T18:05:43.097Z,3.90
2023-04-19T18:08:10.312Z,3.90
2023-04-19T18:10:37.505Z,3.70
2023-04-19T18:13:04.647Z,3.60
2023-04-19T18:15:34.664Z,3.50
2023-04-19T18:18:01.631Z,3.50
2023-04-19T18:20:28.670Z,3.60
2023-04-19T18:22:55.892Z,3.70
2023-04-19T18:25:22.924Z,3.70
2023-04-19T18:27:50.772Z,3.70
2023-04-19T18:30:17.877Z,3.80
2023-04-19T18:32:44.896Z,3.90
2023-04-19T18:35:12.168Z,3.90
2023-04-19T18:37:39.433Z,3.60
2023-04-19T18:40:07.422Z,3.50
2023-04-19T18:42:34.654Z,3.40
2023-04-19T18:45:03.813Z,3.30
2023-04-19T18:47:31.284Z,3.20
2023-04-19T18:50:05.155Z,3.10
2023-04-19T18:52:37.868Z,3.10
2023-04-19T18:55:06.563Z,3.20
2023-04-19T18:57:43.530Z,3.20
2023-04-19T19:00:11.431Z,3.20
2023-04-19T19:02:46.148Z,3.30
2023-04-19T19:05:15.595Z,3.30
2023-04-19T19:07:43.133Z,3.40
2023-04-19T19:10:19.104Z,3.30
2023-04-19T19:12:49.510Z,3.30
2023-04-19T19:15:16.979Z,3.20
2023-04-19T19:17:49.286Z,3.20
2023-04-19T19:20:23.918Z,3.10
2023-04-19T19:22:51.434Z,3.10
2023-04-19T19:25:18.816Z,3.10
2023-04-19T19:28:05.464Z,3.20
2023-04-19T19:30:34.768Z,3.30
2023-04-19T19:33:04.979Z,3.50
2023-04-19T19:35:32.409Z,3.70
2023-04-19T19:37:59.389Z,3.70
2023-04-19T19:40:30.895Z,3.80
2023-04-19T19:42:59.644Z,3.80
2023-04-19T19:45:32.911Z,4.00
2023-04-19T19:48:00.608Z,4.10
2023-04-19T19:52:59.791Z,4.10
2023-04-19T19:55:27.038Z,4.00
2023-04-19T20:02:56.994Z,3.20
2023-04-19T20:05:24.630Z,3.00
2023-04-19T20:10:21.998Z,2.90
2023-04-19T20:12:48.981Z,3.10
2023-04-19T20:15:16.108Z,3.30
2023-04-19T20:17:44.080Z,3.30
2023-04-19T20:20:11.828Z,3.20
2023-04-19T20:22:38.855Z,3.00
2023-04-19T20:25:06.779Z,3.00
2023-04-19T20:27:33.829Z,2.80
2023-04-19T20:30:01.134Z,2.80
2023-04-19T20:32:28.217Z,2.90
2023-04-19T20:34:55.250Z,3.10
2023-04-19T20:37:22.722Z,3.00
2023-04-19T20:39:49.737Z,2.90
2023-04-19T20:42:16.954Z,2.80
2023-04-19T20:44:44.624Z,2.80
2023-04-19T20:47:13.426Z,3.00
2023-04-19T20:49:40.938Z,3.30
2023-04-19T20:52:08.065Z,3.40
2023-04-19T20:54:36.847Z,3.50
2023-04-19T20:57:04.933Z,3.60
2023-04-19T20:59:32.062Z,3.80
2023-04-19T21:02:00.289Z,3.90
2023-04-19T21:04:27.543Z,4.00
2023-04-19T21:06:54.810Z,4.00
2023-04-19T21:09:21.851Z,4.00
2023-04-19T21:11:55.849Z,4.10
2023-04-19T21:14:22.833Z,4.20
2023-04-19T21:16:49.802Z,4.20
2023-04-19T21:19:17.454Z,4.30
2023-04-19T21:21:44.646Z,4.20
2023-04-19T21:24:11.658Z,4.20
2023-04-19T21:26:38.729Z,4.30
2023-04-19T21:29:05.742Z,4.30
2023-04-19T21:31:32.745Z,4.40
2023-04-19T21:36:52.419Z,4.30
2023-04-19T21:39:19.578Z,4.10
2023-04-19T21:41:46.599Z,3.70
2023-04-19T21:44:13.557Z,3.40
2023-04-19T21:46:41.012Z,3.20
2023-04-19T21:49:08.412Z,3.20
2023-04-19T21:51:35.448Z,3.30
2023-04-19T21:54:02.486Z,3.50
2023-04-19T21:56:29.844Z,3.50
2023-04-19T21:58:57.345Z,3.50
2023-04-19T22:01:24.402Z,3.50
2023-04-19T22:03:51.783Z,3.60
2023-04-19T22:06:19.486Z,3.60
2023-04-19T22:08:48.060Z,3.60
2023-04-19T22:11:15.760Z,3.60
2023-04-19T22:13:44.342Z,3.60
2023-04-19T22:16:11.813Z,3.60
2023-04-19T22:18:41.450Z,3.60
2023-04-19T22:21:10.047Z,3.70
2023-04-19T22:23:37.634Z,3.70
2023-04-19T22:26:05.100Z,3.80
2023-04-19T22:28:33.873Z,3.80
2023-04-19T22:31:00.945Z,3.90
2023-04-19T22:33:28.189Z,4.00
2023-04-19T22:35:55.272Z,4.10
2023-04-19T22:38:22.373Z,4.00
2023-04-19T22:40:49.386Z,4.00
2023-04-19T22:43:19.506Z,4.00
2023-04-19T22:45:48.200Z,4.00
2023-04-19T22:48:15.598Z,4.10
2023-04-19T22:50:42.725Z,4.00
2023-04-19T22:53:12.736Z,3.80
2023-04-19T22:55:43.218Z,3.60
2023-04-19T22:58:10.314Z,3.50
2023-04-19T23:00:38.149Z,3.40
2023-04-19T23:03:05.328Z,3.40
2023-04-19T23:05:33.772Z,3.30
2023-04-19T23:08:02.848Z,3.20
2023-04-19T23:10:31.878Z,3.10
2023-04-19T23:12:58.900Z,3.30
2023-04-19T23:15:33.324Z,3.50
2023-04-19T23:18:02.574Z,3.70
2023-04-19T23:20:30.849Z,3.80
2023-04-19T23:22:57.866Z,3.90
2023-04-19T23:25:25.574Z,4.00
2023-04-19T23:27:55.203Z,4.00
2023-04-19T23:30:22.208Z,4.00
2023-04-19T23:32:49.197Z,4.10
2023-04-19T23:35:23.379Z,4.10
2023-04-19T23:37:50.731Z,4.00
2023-04-19T23:40:18.084Z,4.00
2023-04-19T23:42:45.172Z,3.80
2023-04-19T23:45:12.351Z,3.80
2023-04-19T23:47:39.396Z,3.90
2023-04-19T23:50:07.037Z,4.00
2023-04-19T23:52:34.066Z,4.00
2023-04-19T23:55:01.140Z,3.90
2023-04-19T23:57:28.160Z,3.70
2023-04-19T23:59:55.152Z,3.70
